Terminal Aerodrome Forecast
Issued by NWS

Home | Current Version | Previous Version | Text Only | Print | Product List | Glossary On
Versions: 1 2 3 4 5 6 7 8 9 10 11 12 13 14 15 16 17 18
875
FTUS46 KSEW 180530
TAFCLM
TAF
KCLM 180530Z 1806/1906 32005KT P6SM FEW035 OVC060
     FM180800 28012G20KT P6SM -RA BKN025 OVC035
     FM181600 29008KT P6SM SCT025 BKN050 BKN080
     FM190300 VRB03KT P6SM -RA BKN015 OVC025=

USA.gov is the U.S. government's official web portal to all federal, state and local government web resources and services.